createdAt,value
2023-03-06T09:55:32.937Z,946.62
2023-03-06T09:56:32.632Z,946.44
2023-03-06T09:57:32.648Z,946.08
2023-03-06T09:58:32.753Z,946.13
2023-03-06T09:59:32.650Z,946.36
2023-03-06T10:00:36.016Z,946.09
2023-03-06T10:01:32.702Z,945.86
2023-03-06T10:02:32.779Z,945.94
2023-03-06T10:03:32.788Z,946.14
2023-03-06T10:04:32.769Z,945.86
2023-03-06T10:05:32.725Z,945.71
2023-03-06T10:06:32.658Z,945.73
2023-03-06T10:07:32.705Z,945.76
2023-03-06T10:08:32.677Z,945.96
2023-03-06T10:09:32.674Z,945.98
2023-03-06T10:10:32.726Z,945.06
2023-03-06T10:11:32.717Z,944.79
2023-03-06T10:12:32.717Z,945.15
2023-03-06T10:13:32.652Z,944.84
2023-03-06T10:14:32.620Z,944.56
2023-03-06T10:15:32.790Z,944.52
2023-03-06T10:16:32.716Z,944.38
2023-03-06T10:17:32.710Z,943.97
2023-03-06T10:18:32.712Z,944.38
2023-03-06T10:19:32.793Z,944.52
2023-03-06T10:20:33.112Z,944.29
2023-03-06T10:21:32.727Z,944.35
2023-03-06T10:22:32.701Z,944.14
2023-03-06T10:23:32.819Z,944.18
2023-03-06T10:24:41.909Z,944.14
2023-03-06T10:25:32.791Z,944.46
2023-03-06T10:26:32.941Z,944.10
2023-03-06T10:27:32.757Z,944.04
2023-03-06T10:28:34.463Z,943.96
2023-03-06T10:29:32.773Z,943.58
2023-03-06T10:30:32.814Z,943.53
2023-03-06T10:31:32.768Z,943.63
2023-03-06T10:32:46.300Z,943.06
2023-03-06T10:33:32.755Z,943.76
2023-03-06T10:34:32.753Z,943.22
2023-03-06T10:35:32.795Z,942.92
2023-03-06T10:36:32.735Z,942.80
2023-03-06T10:37:32.731Z,942.45
2023-03-06T10:38:32.754Z,942.56
2023-03-06T10:39:32.838Z,942.19
2023-03-06T10:40:33.242Z,942.62
2023-03-06T10:41:32.858Z,942.01
2023-03-06T10:42:32.799Z,942.40
2023-03-06T10:43:36.023Z,942.18
2023-03-06T10:44:32.866Z,941.92
2023-03-06T10:45:47.260Z,942.31
2023-03-06T10:46:32.919Z,942.01
2023-03-06T10:47:32.755Z,941.92
2023-03-06T10:48:32.760Z,941.95
2023-03-06T10:49:32.800Z,942.56
2023-03-06T10:50:33.225Z,942.65
2023-03-06T10:51:32.915Z,942.68
2023-03-06T10:52:32.856Z,942.73
2023-03-06T10:53:32.878Z,941.93
2023-03-06T10:54:32.841Z,942.11
2023-03-06T10:55:33.148Z,942.11
2023-03-06T10:56:32.835Z,942.39
2023-03-06T10:57:32.748Z,942.21
2023-03-06T10:58:32.755Z,942.33
2023-03-06T10:59:32.816Z,942.26
2023-03-06T11:00:33.148Z,942.78
2023-03-06T11:01:32.888Z,942.65
2023-03-06T11:02:32.854Z,942.48
2023-03-06T11:03:32.786Z,942.52
2023-03-06T11:04:32.811Z,942.51
2023-03-06T11:05:32.854Z,942.62
2023-03-06T11:06:32.783Z,942.19
2023-03-06T11:07:32.788Z,942.86
2023-03-06T11:08:32.823Z,943.27
2023-03-06T11:09:32.797Z,942.98
2023-03-06T11:10:32.811Z,943.25
2023-03-06T11:11:37.705Z,943.28
2023-03-06T11:12:32.837Z,943.22
2023-03-06T11:13:32.825Z,943.03
2023-03-06T11:14:32.834Z,942.59
2023-03-06T11:15:33.216Z,942.68
2023-03-06T11:16:32.860Z,942.60
2023-03-06T11:17:32.857Z,942.53
2023-03-06T11:18:32.914Z,942.68
2023-03-06T11:19:32.825Z,942.78
2023-03-06T11:20:48.634Z,942.95
2023-03-06T11:21:32.807Z,943.16
2023-03-06T11:22:32.899Z,942.51
2023-03-06T11:23:32.828Z,942.68
2023-03-06T11:24:32.890Z,942.31
2023-03-06T11:25:32.847Z,942.52
2023-03-06T11:26:32.876Z,942.34
2023-03-06T11:27:32.853Z,942.26
2023-03-06T11:28:32.870Z,942.72
2023-03-06T11:29:35.284Z,942.71
2023-03-06T11:30:32.906Z,942.31
2023-03-06T11:31:32.932Z,942.54
2023-03-06T11:32:32.887Z,942.05
2023-03-06T11:33:32.829Z,942.49
2023-03-06T11:34:32.867Z,941.75
2023-03-06T11:35:32.912Z,942.36
2023-03-06T11:36:32.909Z,942.57
2023-03-06T11:37:32.889Z,943.03
2023-03-06T11:38:32.819Z,943.14
2023-03-06T11:39:32.939Z,942.41
2023-03-06T11:40:33.042Z,942.47
2023-03-06T11:41:32.871Z,942.60
2023-03-06T11:42:32.880Z,942.43
2023-03-06T11:43:32.840Z,942.66
2023-03-06T11:44:32.860Z,942.78
2023-03-06T11:45:32.975Z,942.84
2023-03-06T11:46:32.934Z,942.65
2023-03-06T11:47:32.901Z,942.62
2023-03-06T11:48:32.974Z,942.69
2023-03-06T11:49:32.841Z,942.46
2023-03-06T11:50:32.979Z,942.63
2023-03-06T11:51:32.906Z,942.53
2023-03-06T11:52:32.868Z,943.30
2023-03-06T11:53:32.933Z,942.85
2023-03-06T11:54:32.945Z,943.13
2023-03-06T11:55:33.403Z,943.19
2023-03-06T11:56:32.911Z,942.93
2023-03-06T11:57:33.046Z,942.98
2023-03-06T11:58:32.969Z,942.78
2023-03-06T11:59:32.945Z,942.88
2023-03-06T12:00:32.960Z,942.82
2023-03-06T12:01:33.004Z,942.95
2023-03-06T12:02:32.941Z,942.58
2023-03-06T12:03:32.944Z,942.70
2023-03-06T12:04:32.926Z,942.92
2023-03-06T12:05:33.411Z,942.86
2023-03-06T12:06:32.987Z,943.39
2023-03-06T12:07:32.972Z,943.23
2023-03-06T12:08:33.077Z,943.47
2023-03-06T12:09:32.917Z,943.28
2023-03-06T12:10:33.018Z,942.79
2023-03-06T12:11:33.383Z,943.08
2023-03-06T12:12:32.919Z,943.77
2023-03-06T12:13:32.996Z,942.54
2023-03-06T12:14:33.113Z,942.22
2023-03-06T12:15:33.557Z,942.40
2023-03-06T12:16:33.115Z,942.46
2023-03-06T12:17:32.984Z,941.82
2023-03-06T12:18:33.022Z,942.07
2023-03-06T12:19:32.957Z,942.23
2023-03-06T12:20:33.022Z,942.19
2023-03-06T12:21:33.341Z,942.21
2023-03-06T12:22:32.991Z,941.81
2023-03-06T12:23:32.949Z,941.55
2023-03-06T12:24:32.977Z,942.17
2023-03-06T12:25:33.006Z,941.31
2023-03-06T12:26:33.087Z,941.91
2023-03-06T12:27:33.059Z,941.72
2023-03-06T12:28:32.996Z,941.90
2023-03-06T12:29:33.038Z,941.72
2023-03-06T12:30:33.030Z,941.69
2023-03-06T12:31:33.140Z,942.18
2023-03-06T12:32:32.984Z,942.31
2023-03-06T12:33:32.978Z,942.64
2023-03-06T12:34:33.090Z,942.80
2023-03-06T12:35:34.019Z,942.16
2023-03-06T12:36:33.020Z,942.09
2023-03-06T12:37:32.990Z,942.48
2023-03-06T12:38:33.013Z,942.18
2023-03-06T12:39:33.079Z,941.83
2023-03-06T12:40:33.054Z,941.77
2023-03-06T12:41:33.397Z,942.31
2023-03-06T12:42:33.123Z,941.87
2023-03-06T12:43:33.003Z,941.30
2023-03-06T12:44:33.103Z,940.86
2023-03-06T12:45:33.132Z,941.37
2023-03-06T12:46:33.053Z,941.28
2023-03-06T12:47:33.056Z,941.68
2023-03-06T12:48:33.031Z,941.51
2023-03-06T12:49:33.474Z,941.85
2023-03-06T12:50:33.085Z,941.53
2023-03-06T12:51:33.084Z,941.71
2023-03-06T12:52:33.140Z,941.92
2023-03-06T12:53:33.027Z,941.90
2023-03-06T12:54:33.093Z,942.06
2023-03-06T12:55:33.116Z,942.04
2023-03-06T12:56:33.025Z,941.78
2023-03-06T12:57:33.106Z,942.17
2023-03-06T12:58:33.044Z,942.69
2023-03-06T12:59:33.043Z,942.03
2023-03-06T13:00:33.095Z,942.02
2023-03-06T13:01:33.148Z,942.00
2023-03-06T13:02:33.132Z,942.24
2023-03-06T13:03:33.084Z,942.27
2023-03-06T13:04:33.155Z,942.11
2023-03-06T13:05:33.304Z,941.88
2023-03-06T13:06:36.554Z,942.38
2023-03-06T13:07:33.158Z,941.95
2023-03-06T13:08:33.265Z,942.32
2023-03-06T13:09:33.204Z,942.30
2023-03-06T13:10:33.221Z,942.04
2023-03-06T13:11:33.195Z,942.41
2023-03-06T13:12:33.210Z,942.66
2023-03-06T13:13:33.151Z,942.29
2023-03-06T13:14:34.351Z,942.77
2023-03-06T13:15:33.327Z,942.63
2023-03-06T13:16:33.414Z,942.57
2023-03-06T13:17:33.345Z,942.50
2023-03-06T13:18:33.382Z,942.82
2023-03-06T13:19:33.420Z,942.89
2023-03-06T13:20:35.167Z,942.15
2023-03-06T13:21:33.482Z,942.35
2023-03-06T13:22:33.550Z,942.54
2023-03-06T13:23:33.564Z,942.65
2023-03-06T13:24:33.519Z,942.89
2023-03-06T13:25:33.678Z,942.66
2023-03-06T13:26:33.707Z,943.25
2023-03-06T13:27:33.577Z,942.92
2023-03-06T13:28:33.710Z,942.85
2023-03-06T13:29:33.673Z,943.07
2023-03-06T13:30:33.730Z,943.20
2023-03-06T13:31:33.943Z,943.58
2023-03-06T13:32:33.845Z,943.03
2023-03-06T13:33:33.758Z,943.31
2023-03-06T13:34:33.814Z,943.37
2023-03-06T13:35:33.855Z,943.42
2023-03-06T13:36:33.804Z,943.50
2023-03-06T13:37:33.847Z,943.13
2023-03-06T13:38:33.913Z,943.17
2023-03-06T13:39:33.910Z,943.61
2023-03-06T13:40:34.081Z,943.26
2023-03-06T13:41:34.014Z,943.44
2023-03-06T13:42:33.992Z,943.22
2023-03-06T13:43:34.025Z,943.10
2023-03-06T13:44:34.065Z,943.27
2023-03-06T13:45:34.019Z,943.47
2023-03-06T13:46:34.135Z,943.28
2023-03-06T13:47:39.176Z,943.24
2023-03-06T13:48:44.097Z,943.12
2023-03-06T13:49:34.163Z,943.13
2023-03-06T13:50:34.245Z,943.45
2023-03-06T13:51:34.170Z,943.69
2023-03-06T13:52:34.150Z,943.72
2023-03-06T13:53:34.190Z,943.49
2023-03-06T13:54:34.171Z,943.24
2023-03-06T13:55:34.187Z,943.19
2023-03-06T13:56:34.147Z,943.13
2023-03-06T13:57:34.139Z,943.62
2023-03-06T13:58:34.233Z,943.21
2023-03-06T13:59:34.138Z,942.97
2023-03-06T14:00:34.240Z,943.28
2023-03-06T14:01:34.252Z,943.82
2023-03-06T14:02:34.237Z,943.93
2023-03-06T14:03:34.167Z,944.23
2023-03-06T14:04:34.194Z,944.80
2023-03-06T14:05:35.661Z,944.95
2023-03-06T14:06:34.172Z,945.67
2023-03-06T14:07:34.222Z,946.01
2023-03-06T14:08:34.164Z,946.44
2023-03-06T14:09:35.589Z,946.60
2023-03-06T14:10:34.248Z,946.52
2023-03-06T14:11:34.245Z,946.46
2023-03-06T14:12:34.187Z,946.83
2023-03-06T14:13:45.259Z,946.81
2023-03-06T14:14:34.253Z,947.00
2023-03-06T14:15:34.260Z,947.17
2023-03-06T14:16:47.608Z,947.10
2023-03-06T14:17:34.228Z,947.23
2023-03-06T14:18:34.197Z,947.25
2023-03-06T14:19:34.212Z,947.44
2023-03-06T14:20:34.240Z,947.49
2023-03-06T14:21:34.225Z,947.38
2023-03-06T14:22:34.263Z,947.57
2023-03-06T14:23:34.188Z,947.34
2023-03-06T14:24:34.169Z,947.55
2023-03-06T14:25:34.199Z,947.76
2023-03-06T14:26:34.257Z,947.72
2023-03-06T14:27:34.215Z,947.76
2023-03-06T14:28:34.199Z,947.69
2023-03-06T14:29:34.240Z,947.67
2023-03-06T14:30:34.791Z,947.68
2023-03-06T14:31:34.354Z,947.77
2023-03-06T14:32:34.319Z,947.74
